Golden Gate — WDF7183 — position and weather

sailwx.info

Track history (hours):
 
Tides and Currents Weather Stations Pressure Air Temp Water Temp Dewpoint Dewpoint Depression Visibility Wind Speed Wind Dir Waves Ship Positions

Golden Gate

Owner: Golden Gate Bridge Highway and Transportation District, San Francisco, CA. More information available from US FCC via Universal Licensing System and Coast Guard Vessel Documentation Center.

Last reported at 2018-May-25 04:54 UTC. Time now 2018-May-25 05:20 UTC.
Position N 37°56' W 122°30'.

Length 41 m; draft 3.8 m.

Type: Passenger vessel. MMSI: 366778450.

Date/timePositionNaut miles runAvg speedWind from/ knotsBaromVisibWave heightAir tempDewpointWater temp
2018-May-25 04:54N 37°56' W 122°30'1025.2
2018-May-25 04:30N 37°48' W 122°24'815.9
2018-May-25 04:00N 37°55' W 122°28'2 3.8
2018-May-25 03:29N 37°56' W 122°30'1020.0
2018-May-25 03:00N 37°48' W 122°24'1020.1
2018-May-25 02:30N 37°56' W 122°30'0 0.9
2018-May-25 02:00N 37°57' W 122°30'1021.3
2018-May-25 01:30N 37°48' W 122°24'3 5.6
2018-May-25 01:01N 37°50' W 122°24'814.4
2018-May-25 00:28N 37°57' W 122°30'1022.4
2018-May-25 00:00N 37°48' W 122°24'2 3.3
2018-May-24 23:31N 37°49' W 122°24'915.6
2018-May-24 22:56N 37°57' W 122°30'1023.8
2018-May-24 22:30N 37°48' W 122°24'917.9
2018-May-24 22:00N 37°56' W 122°28'2 2.6
2018-May-24 21:18N 37°57' W 122°30'0 0.0
2018-May-24 20:58N 37°57' W 122°30'920.8
2018-May-24 20:31N 37°49' W 122°23'3 5.3
2018-May-24 20:01N 37°52' W 122°25'711.0
2018-May-24 19:24N 37°57' W 122°30'1025.4
2018-May-24 19:01N 37°48' W 122°23'4 8.6
2018-May-24 18:31N 37°52' W 122°25'5 5.8
2018-May-24 17:36N 37°56' W 122°29'328.8
2018-May-24 17:30N 37°54' W 122°27'713.9
2018-May-24 17:00N 37°48' W 122°24'1018.5
2018-May-24 16:29N 37°56' W 122°30'1 1.4
2018-May-24 16:00N 37°57' W 122°30'1020.9
2018-May-24 15:30N 37°48' W 122°24'1019.2
2018-May-24 15:00N 37°56' W 122°30'4 8.2
2018-May-24 14:30N 37°53' W 122°26'4 8.9
2018-May-24 14:00N 37°49' W 122°24'9 1.0
2018-May-24 04:58N 37°56' W 122°30'1021.9
2018-May-24 04:30N 37°48' W 122°24'918.8
2018-May-24 04:00N 37°56' W 122°29'0 0.1
2018-May-24 03:30N 37°56' W 122°29'918.1
2018-May-24 03:00N 37°48' W 122°24'1020.4
2018-May-24 02:31N 37°57' W 122°30'0 0.2
2018-May-24 01:56N 37°57' W 122°30'1023.9
2018-May-24 01:30N 37°48' W 122°24'3 5.4
2018-May-24 01:01N 37°50' W 122°24'814.3
2018-May-24 00:27N 37°57' W 122°30'1023.4
2018-May-24 00:00N 37°48' W 122°24'4 7.2
2018-May-23 23:31N 37°51' W 122°25'712.5
2018-May-23 22:57N 37°57' W 122°30'1022.4
2018-May-23 22:29N 37°48' W 122°24'1019.0
2018-May-23 21:58N 37°56' W 122°30'1 0.9
2018-May-23 21:22N 37°57' W 122°30'0 0.0
2018-May-23 20:56N 37°57' W 122°30'922.0
2018-May-23 20:31N 37°49' W 122°24'3 5.1
2018-May-23 20:00N 37°52' W 122°25'711.0
2018-May-23 19:24N 37°57' W 122°30'1024.5
2018-May-23 19:01N 37°49' W 122°23'2 5.0
2018-May-23 18:31N 37°51' W 122°25'7 8.7
2018-May-23 17:41N 37°57' W 122°30'212.5
2018-May-23 17:30N 37°56' W 122°28'917.1
2018-May-23 17:00N 37°48' W 122°24'1019.0
2018-May-23 16:29N 37°56' W 122°30'1 1.5
2018-May-23 15:59N 37°57' W 122°30'1021.8
2018-May-23 15:30N 37°48' W 122°24'1016.9
2018-May-23 14:54N 37°57' W 122°30'4 9.9
2018-May-23 14:29N 37°54' W 122°26'613.1
2018-May-23 14:00N 37°48' W 122°23'9 1.0
2018-May-23 04:52N 37°56' W 122°29'925.3
2018-May-23 04:30N 37°48' W 122°24'815.6
2018-May-23 04:01N 37°55' W 122°28'2 4.3
2018-May-23 03:30N 37°56' W 122°30'1019.9
2018-May-23 03:00N 37°48' W 122°24'1019.6
2018-May-23 02:29N 37°57' W 122°30'0 0.5
2018-May-23 01:57N 37°57' W 122°30'1020.4
2018-May-23 01:26N 37°48' W 122°24'3 6.1
2018-May-23 01:00N 37°50' W 122°24'813.7
2018-May-23 00:26N 37°57' W 122°30'1024.1
2018-May-23 00:00N 37°48' W 122°24'3 6.5
2018-May-22 23:30N 37°51' W 122°25'713.7
2018-May-22 22:58N 37°57' W 122°30'1022.9
2018-May-22 22:30N 37°48' W 122°24'918.6
2018-May-22 22:00N 37°56' W 122°29'1 1.2
2018-May-22 20:58N 37°57' W 122°30'1022.2
2018-May-22 20:30N 37°48' W 122°23'2 5.0
2018-May-22 20:00N 37°51' W 122°24'814.9
2018-May-22 19:29N 37°57' W 122°30'1021.0
2018-May-22 19:00N 37°48' W 122°23'4 7.4
2018-May-22 18:31N 37°52' W 122°25'7 8.2
2018-May-22 17:42N 37°57' W 122°30'2 9.6
2018-May-22 17:29N 37°56' W 122°28'918.3
2018-May-22 17:00N 37°48' W 122°24'1018.8
2018-May-22 16:29N 37°56' W 122°30'1 1.7
2018-May-22 16:00N 37°57' W 122°30'1021.1
2018-May-22 15:30N 37°48' W 122°24'1017.7
2018-May-22 14:57N 37°56' W 122°30'1 2.5
2018-May-22 14:30N 37°56' W 122°29'918.1
2018-May-22 14:01N 37°48' W 122°23'6 0.7
2018-May-22 04:47N 37°54' W 122°26'621.8
2018-May-22 04:30N 37°48' W 122°24'918.1
2018-May-22 04:00N 37°56' W 122°28'1 2.2
2018-May-22 03:31N 37°56' W 122°30'1019.6
2018-May-22 03:00N 37°48' W 122°24'1020.2
2018-May-22 02:30N 37°56' W 122°30'0 0.6
2018-May-22 01:58N 37°57' W 122°30'1022.5
2018-May-22 01:30N 37°48' W 122°24'3 5.5
2018-May-22 01:00N 37°50' W 122°24'814.8
2018-May-22 00:28N 37°57' W 122°30'1022.1
2018-May-22 00:00N 37°48' W 122°24'2 4.4
2018-May-21 23:30N 37°50' W 122°24'816.4
2018-May-21 22:59N 37°57' W 122°30'1021.5
2018-May-21 22:30N 37°48' W 122°24'1019.4
2018-May-21 22:00N 37°56' W 122°30'1 1.2
2018-May-21 21:19N 37°57' W 122°30'0 0.0
2018-May-21 21:00N 37°57' W 122°30'1020.2
2018-May-21 20:30N 37°49' W 122°23'3 5.5
2018-May-21 20:00N 37°51' W 122°25'711.4
2018-May-21 19:24N 37°57' W 122°30'1025.3
2018-May-21 19:00N 37°49' W 122°23'3 6.8
2018-May-21 18:30N 37°52' W 122°25'7 8.7
2018-May-21 17:44N 37°57' W 122°30'312.3
2018-May-21 17:31N 37°55' W 122°27'816.2
2018-May-21 17:00N 37°48' W 122°24'919.0
2018-May-21 16:30N 37°56' W 122°29'1 1.8
2018-May-21 16:00N 37°57' W 122°30'1020.8
2018-May-21 15:30N 37°48' W 122°24'1018.4
2018-May-21 14:57N 37°56' W 122°30'3 7.1
2018-May-21 14:30N 37°55' W 122°27'611.8
2018-May-21 14:00N 37°49' W 122°24'918.5
2018-May-21 13:30N 37°57' W 122°30'1 0.0
2018-May-21 02:46N 37°56' W 122°30'832.7
2018-May-21 02:31N 37°50' W 122°24'2 3.8
2018-May-21 02:01N 37°48' W 122°23'510.9
2018-May-21 01:30N 37°51' W 122°29'510.8
2018-May-21 01:00N 37°48' W 122°24'0 0.0
2018-May-21 00:30N 37°48' W 122°24'611.8
2018-May-21 00:00N 37°53' W 122°26'5 9.4
2018-May-20 23:29N 37°57' W 122°30'611.9
2018-May-20 23:01N 37°53' W 122°25'510.2
2018-May-20 22:30N 37°48' W 122°23'1020.4
2018-May-20 22:00N 37°57' W 122°30'1020.6
2018-May-20 21:30N 37°48' W 122°24'612.3
2018-May-20 21:00N 37°53' W 122°26'5 8.6
2018-May-20 20:27N 37°57' W 122°30'1 2.0
2018-May-20 20:00N 37°56' W 122°30'1019.4
2018-May-20 19:30N 37°48' W 122°24'611.5
2018-May-20 19:00N 37°53' W 122°26'5 9.7
2018-May-20 18:30N 37°57' W 122°30'0 0.0
2018-May-20 18:00N 37°57' W 122°30'0 0.0
2018-May-20 17:29N 37°57' W 122°30'0 0.0
2018-May-20 17:00N 37°57' W 122°30'0 0.0
2018-May-20 16:27N 37°57' W 122°30'0 0.0
2018-May-20 16:00N 37°57' W 122°30'612.0
2018-May-20 15:30N 37°53' W 122°25'3 6.0
2018-May-20 15:00N 37°55' W 122°28'2 4.5
2018-May-20 14:30N 37°56' W 122°30'1020.3
2018-May-20 14:00N 37°48' W 122°24'1021.0
2018-May-20 13:30N 37°57' W 122°30'1 0.1
2018-May-20 02:36N 37°56' W 122°30'218.7
2018-May-20 02:30N 37°56' W 122°28'816.5
2018-May-20 02:00N 37°48' W 122°23'510.0
2018-May-20 01:30N 37°51' W 122°28'510.2
2018-May-20 01:00N 37°48' W 122°24'0 0.0
2018-May-20 00:30N 37°48' W 122°24'0 0.0
2018-May-19 23:59N 37°48' W 122°24'0 0.5
2018-May-19 23:31N 37°48' W 122°23'510.5
2018-May-19 23:00N 37°51' W 122°29'1 1.2
2018-May-19 22:30N 37°51' W 122°28'0 0.1
2018-May-19 22:00N 37°51' W 122°28'0 0.1
2018-May-19 21:30N 37°51' W 122°28'510.4
2018-May-19 21:00N 37°56' W 122°29'1 0.0
2018-May-19 04:58N 37°56' W 122°30'1021.8
2018-May-19 04:30N 37°48' W 122°24'917.8
2018-May-19 04:00N 37°56' W 122°29'0 0.0
2018-May-19 03:30N 37°56' W 122°29'918.2
2018-May-19 03:00N 37°48' W 122°24'1020.0
2018-May-19 02:30N 37°56' W 122°30'0 0.9
2018-May-19 02:00N 37°57' W 122°30'1021.3
2018-May-19 01:30N 37°48' W 122°24'4 8.6
2018-May-19 01:01N 37°52' W 122°25'612.8
2018-May-19 00:30N 37°57' W 122°30'1021.1
2018-May-19 00:00N 37°48' W 122°24'3 6.5
2018-May-18 23:30N 37°51' W 122°25'714.7
2018-May-18 23:00N 37°57' W 122°30'1021.0
2018-May-18 22:30N 37°48' W 122°24'918.8
2018-May-18 22:01N 37°56' W 122°29'1 2.6
2018-May-18 21:29N 37°57' W 122°30'0 0.0
2018-May-18 20:58N 37°57' W 122°30'1022.9
2018-May-18 20:31N 37°48' W 122°23'4 7.2
2018-May-18 20:01N 37°51' W 122°25'7 9.9
2018-May-18 19:20N 37°57' W 122°30'929.2
2018-May-18 19:01N 37°49' W 122°23'3 6.4
2018-May-18 18:30N 37°52' W 122°25'6 7.6
2018-May-18 17:41N 37°57' W 122°30'315.9
2018-May-18 17:30N 37°55' W 122°27'815.6
2018-May-18 17:00N 37°48' W 122°24'1019.7
2018-May-18 16:29N 37°56' W 122°30'0 0.5
2018-May-18 15:59N 37°56' W 122°30'1020.6
2018-May-18 15:30N 37°48' W 122°24'1017.9
2018-May-18 14:56N 37°56' W 122°30'3 6.8
2018-May-18 14:30N 37°55' W 122°27'713.1
2018-May-18 14:01N 37°49' W 122°23'9 1.0
2018-May-18 04:55N 37°56' W 122°30'1023.6
2018-May-18 04:30N 37°48' W 122°24'917.7
2018-May-18 04:01N 37°56' W 122°28'1 2.8
2018-May-18 03:30N 37°56' W 122°30'1019.5
2018-May-18 03:00N 37°48' W 122°24'1017.8
2018-May-18 02:25N 37°57' W 122°30'0 0.0
2018-May-18 02:00N 37°57' W 122°30'1021.0
2018-May-18 01:30N 37°48' W 122°24'4 7.4
2018-May-18 01:00N 37°51' W 122°25'712.5
2018-May-18 00:27N 37°57' W 122°30'1023.8
2018-May-18 00:00N 37°48' W 122°24'3 6.6
2018-May-17 23:31N 37°51' W 122°25'713.6
2018-May-17 22:58N 37°57' W 122°30'1022.6
2018-May-17 22:30N 37°48' W 122°24'1019.3
2018-May-17 22:00N 37°56' W 122°30'1 1.1
2018-May-17 21:24N 37°57' W 122°30'0 0.0
2018-May-17 20:57N 37°57' W 122°30'1023.1
2018-May-17 20:30N 37°48' W 122°24'5 9.1
2018-May-17 20:01N 37°52' W 122°25'6 9.6
2018-May-17 19:23N 37°57' W 122°30'1026.6
2018-May-17 19:00N 37°49' W 122°23'4 7.1
2018-May-17 18:30N 37°52' W 122°25'712.6
2018-May-17 17:59N 37°57' W 122°30'2 3.6
2018-May-17 17:30N 37°56' W 122°29'918.0
2018-May-17 17:00N 37°48' W 122°24'1018.7
2018-May-17 16:29N 37°56' W 122°30'1 1.3
2018-May-17 16:01N 37°57' W 122°30'1019.2
2018-May-17 15:28N 37°48' W 122°24'1020.8
2018-May-17 15:00N 37°56' W 122°30'2 3.5
2018-May-17 14:31N 37°55' W 122°28'816.0
2018-May-17 14:01N 37°48' W 122°23'1018.6
2018-May-17 13:28N 37°57' W 122°30'0 0.0
2018-May-17 04:57N 37°56' W 122°30'1021.3
2018-May-17 04:29N 37°48' W 122°24'918.5
2018-May-17 04:00N 37°56' W 122°28'1 2.1
2018-May-17 03:30N 37°56' W 122°30'1019.5
2018-May-17 03:01N 37°48' W 122°24'1019.6
2018-May-17 02:29N 37°57' W 122°30'0 0.6
2018-May-17 02:00N 37°57' W 122°30'1020.5
2018-May-17 01:30N 37°48' W 122°24'4 7.5
2018-May-17 01:01N 37°51' W 122°25'713.6
2018-May-17 00:30N 37°57' W 122°30'1021.3
2018-May-17 00:00N 37°48' W 122°24'1 2.9
2018-May-16 23:31N 37°49' W 122°24'917.2
2018-May-16 22:58N 37°57' W 122°30'1022.1
2018-May-16 22:30N 37°48' W 122°24'918.1
2018-May-16 22:01N 37°56' W 122°28'2 1.7
2018-May-16 20:55N 37°57' W 122°30'1025.0
2018-May-16 20:30N 37°48' W 122°23'4 8.4
2018-May-16 20:00N 37°52' W 122°25'612.2
2018-May-16 19:30N 37°57' W 122°30'1020.4
2018-May-16 19:00N 37°49' W 122°23'611.5
2018-May-16 18:31N 37°54' W 122°27'4 5.5
2018-May-16 17:44N 37°57' W 122°30'415.3
2018-May-16 17:30N 37°55' W 122°27'714.9
2018-May-16 17:00N 37°48' W 122°24'1019.5
2018-May-16 16:30N 37°56' W 122°30'0 0.1
2018-May-16 15:58N 37°56' W 122°30'1021.3
2018-May-16 15:30N 37°48' W 122°24'1019.1
2018-May-16 15:00N 37°56' W 122°30'3 5.3
2018-May-16 14:30N 37°55' W 122°27'613.1
2018-May-16 14:01N 37°49' W 122°23'1019.0
2018-May-16 13:30N 37°57' W 122°30'1 0.1
2018-May-16 04:54N 37°56' W 122°30'1024.3
2018-May-16 04:30N 37°48' W 122°24'918.6
2018-May-16 04:01N 37°56' W 122°29'1 1.6
2018-May-16 03:30N 37°56' W 122°29'1019.0
2018-May-16 03:00N 37°48' W 122°24'1020.3
2018-May-16 02:30N 37°56' W 122°30'0 0.8
2018-May-16 01:59N 37°57' W 122°30'1021.7
2018-May-16 01:30N 37°48' W 122°24'3 5.8
2018-May-16 01:01N 37°51' W 122°25'815.4
2018-May-16 00:31N 37°57' W 122°30'1020.6
2018-May-16 00:00N 37°48' W 122°24'3 6.4
2018-May-15 23:30N 37°51' W 122°25'714.1
2018-May-15 22:59N 37°57' W 122°30'1022.1
2018-May-15 22:30N 37°48' W 122°24'918.1
2018-May-15 22:00N 37°56' W 122°29'2 1.6
2018-May-15 20:56N 37°57' W 122°30'1022.9
2018-May-15 20:31N 37°49' W 122°23'3 5.4
2018-May-15 20:01N 37°51' W 122°25'713.0
2018-May-15 19:28N 37°57' W 122°30'1021.5
2018-May-15 18:59N 37°48' W 122°23'4 8.5
2018-May-15 18:31N 37°52' W 122°25'6 6.6
2018-May-15 17:38N 37°56' W 122°30'321.5
2018-May-15 17:30N 37°55' W 122°27'814.8
2018-May-15 17:00N 37°48' W 122°24'919.2
2018-May-15 16:30N 37°56' W 122°29'0 0.6
2018-May-15 15:59N 37°56' W 122°30'1020.5
2018-May-15 15:30N 37°48' W 122°24'1019.2
2018-May-15 15:00N 37°56' W 122°30'3 6.3
2018-May-15 14:30N 37°54' W 122°27'611.9
2018-May-15 14:01N 37°49' W 122°23'  
Track history (hours):
 
Tides and Currents Weather Stations Pressure Air Temp Water Temp Dewpoint Dewpoint Depression Visibility Wind Speed Wind Dir Waves Ship Positions

Golden Gate

Owner: Golden Gate Bridge Highway and Transportation District, San Francisco, CA. More information available from US FCC via Universal Licensing System and Coast Guard Vessel Documentation Center.

Last reported at 2018-May-25 04:54 UTC. Time now 2018-May-25 05:20 UTC.
Position N 37°56' W 122°30'.

Length 41 m; draft 3.8 m.

Type: Passenger vessel. MMSI: 366778450.

Date/timePositionNaut miles runAvg speedWind from/ knotsBaromVisibWave heightAir tempDewpointWater temp
2018-May-25 04:54N 37°56' W 122°30'1025.2
2018-May-25 04:30N 37°48' W 122°24'815.9
2018-May-25 04:00N 37°55' W 122°28'2 3.8
2018-May-25 03:29N 37°56' W 122°30'1020.0
2018-May-25 03:00N 37°48' W 122°24'1020.1
2018-May-25 02:30N 37°56' W 122°30'0 0.9
2018-May-25 02:00N 37°57' W 122°30'1021.3
2018-May-25 01:30N 37°48' W 122°24'3 5.6
2018-May-25 01:01N 37°50' W 122°24'814.4
2018-May-25 00:28N 37°57' W 122°30'1022.4
2018-May-25 00:00N 37°48' W 122°24'2 3.3
2018-May-24 23:31N 37°49' W 122°24'915.6
2018-May-24 22:56N 37°57' W 122°30'1023.8
2018-May-24 22:30N 37°48' W 122°24'917.9
2018-May-24 22:00N 37°56' W 122°28'2 2.6
2018-May-24 21:18N 37°57' W 122°30'0 0.0
2018-May-24 20:58N 37°57' W 122°30'920.8
2018-May-24 20:31N 37°49' W 122°23'3 5.3
2018-May-24 20:01N 37°52' W 122°25'711.0
2018-May-24 19:24N 37°57' W 122°30'1025.4
2018-May-24 19:01N 37°48' W 122°23'4 8.6
2018-May-24 18:31N 37°52' W 122°25'5 5.8
2018-May-24 17:36N 37°56' W 122°29'328.8
2018-May-24 17:30N 37°54' W 122°27'713.9
2018-May-24 17:00N 37°48' W 122°24'1018.5
2018-May-24 16:29N 37°56' W 122°30'1 1.4
2018-May-24 16:00N 37°57' W 122°30'1020.9
2018-May-24 15:30N 37°48' W 122°24'1019.2
2018-May-24 15:00N 37°56' W 122°30'4 8.2
2018-May-24 14:30N 37°53' W 122°26'4 8.9
2018-May-24 14:00N 37°49' W 122°24'9 1.0
2018-May-24 04:58N 37°56' W 122°30'1021.9
2018-May-24 04:30N 37°48' W 122°24'918.8
2018-May-24 04:00N 37°56' W 122°29'0 0.1
2018-May-24 03:30N 37°56' W 122°29'918.1
2018-May-24 03:00N 37°48' W 122°24'1020.4
2018-May-24 02:31N 37°57' W 122°30'0 0.2
2018-May-24 01:56N 37°57' W 122°30'1023.9
2018-May-24 01:30N 37°48' W 122°24'3 5.4
2018-May-24 01:01N 37°50' W 122°24'814.3
2018-May-24 00:27N 37°57' W 122°30'1023.4
2018-May-24 00:00N 37°48' W 122°24'4 7.2
2018-May-23 23:31N 37°51' W 122°25'712.5
2018-May-23 22:57N 37°57' W 122°30'1022.4
2018-May-23 22:29N 37°48' W 122°24'1019.0
2018-May-23 21:58N 37°56' W 122°30'1 0.9
2018-May-23 21:22N 37°57' W 122°30'0 0.0
2018-May-23 20:56N 37°57' W 122°30'922.0
2018-May-23 20:31N 37°49' W 122°24'3 5.1
2018-May-23 20:00N 37°52' W 122°25'711.0
2018-May-23 19:24N 37°57' W 122°30'1024.5
2018-May-23 19:01N 37°49' W 122°23'2 5.0
2018-May-23 18:31N 37°51' W 122°25'7 8.7
2018-May-23 17:41N 37°57' W 122°30'212.5
2018-May-23 17:30N 37°56' W 122°28'917.1
2018-May-23 17:00N 37°48' W 122°24'1019.0
2018-May-23 16:29N 37°56' W 122°30'1 1.5
2018-May-23 15:59N 37°57' W 122°30'1021.8
2018-May-23 15:30N 37°48' W 122°24'1016.9
2018-May-23 14:54N 37°57' W 122°30'4 9.9
2018-May-23 14:29N 37°54' W 122°26'613.1
2018-May-23 14:00N 37°48' W 122°23'9 1.0
2018-May-23 04:52N 37°56' W 122°29'925.3
2018-May-23 04:30N 37°48' W 122°24'815.6
2018-May-23 04:01N 37°55' W 122°28'2 4.3
2018-May-23 03:30N 37°56' W 122°30'1019.9
2018-May-23 03:00N 37°48' W 122°24'1019.6
2018-May-23 02:29N 37°57' W 122°30'0 0.5
2018-May-23 01:57N 37°57' W 122°30'1020.4
2018-May-23 01:26N 37°48' W 122°24'3 6.1
2018-May-23 01:00N 37°50' W 122°24'813.7
2018-May-23 00:26N 37°57' W 122°30'1024.1
2018-May-23 00:00N 37°48' W 122°24'3 6.5
2018-May-22 23:30N 37°51' W 122°25'713.7
2018-May-22 22:58N 37°57' W 122°30'1022.9
2018-May-22 22:30N 37°48' W 122°24'918.6
2018-May-22 22:00N 37°56' W 122°29'1 1.2
2018-May-22 20:58N 37°57' W 122°30'1022.2
2018-May-22 20:30N 37°48' W 122°23'2 5.0
2018-May-22 20:00N 37°51' W 122°24'814.9
2018-May-22 19:29N 37°57' W 122°30'1021.0
2018-May-22 19:00N 37°48' W 122°23'4 7.4
2018-May-22 18:31N 37°52' W 122°25'7 8.2
2018-May-22 17:42N 37°57' W 122°30'2 9.6
2018-May-22 17:29N 37°56' W 122°28'918.3
2018-May-22 17:00N 37°48' W 122°24'1018.8
2018-May-22 16:29N 37°56' W 122°30'1 1.7
2018-May-22 16:00N 37°57' W 122°30'1021.1
2018-May-22 15:30N 37°48' W 122°24'1017.7
2018-May-22 14:57N 37°56' W 122°30'1 2.5
2018-May-22 14:30N 37°56' W 122°29'918.1
2018-May-22 14:01N 37°48' W 122°23'6 0.7
2018-May-22 04:47N 37°54' W 122°26'621.8
2018-May-22 04:30N 37°48' W 122°24'918.1
2018-May-22 04:00N 37°56' W 122°28'1 2.2
2018-May-22 03:31N 37°56' W 122°30'1019.6
2018-May-22 03:00N 37°48' W 122°24'1020.2
2018-May-22 02:30N 37°56' W 122°30'0 0.6
2018-May-22 01:58N 37°57' W 122°30'1022.5
2018-May-22 01:30N 37°48' W 122°24'3 5.5
2018-May-22 01:00N 37°50' W 122°24'814.8
2018-May-22 00:28N 37°57' W 122°30'1022.1
2018-May-22 00:00N 37°48' W 122°24'2 4.4
2018-May-21 23:30N 37°50' W 122°24'816.4
2018-May-21 22:59N 37°57' W 122°30'1021.5
2018-May-21 22:30N 37°48' W 122°24'1019.4
2018-May-21 22:00N 37°56' W 122°30'1 1.2
2018-May-21 21:19N 37°57' W 122°30'0 0.0
2018-May-21 21:00N 37°57' W 122°30'1020.2
2018-May-21 20:30N 37°49' W 122°23'3 5.5
2018-May-21 20:00N 37°51' W 122°25'711.4
2018-May-21 19:24N 37°57' W 122°30'1025.3
2018-May-21 19:00N 37°49' W 122°23'3 6.8
2018-May-21 18:30N 37°52' W 122°25'7 8.7
2018-May-21 17:44N 37°57' W 122°30'312.3
2018-May-21 17:31N 37°55' W 122°27'816.2
2018-May-21 17:00N 37°48' W 122°24'919.0
2018-May-21 16:30N 37°56' W 122°29'1 1.8
2018-May-21 16:00N 37°57' W 122°30'1020.8
2018-May-21 15:30N 37°48' W 122°24'1018.4
2018-May-21 14:57N 37°56' W 122°30'3 7.1
2018-May-21 14:30N 37°55' W 122°27'611.8
2018-May-21 14:00N 37°49' W 122°24'918.5
2018-May-21 13:30N 37°57' W 122°30'1 0.0
2018-May-21 02:46N 37°56' W 122°30'832.7
2018-May-21 02:31N 37°50' W 122°24'2 3.8
2018-May-21 02:01N 37°48' W 122°23'510.9
2018-May-21 01:30N 37°51' W 122°29'510.8
2018-May-21 01:00N 37°48' W 122°24'0 0.0
2018-May-21 00:30N 37°48' W 122°24'611.8
2018-May-21 00:00N 37°53' W 122°26'5 9.4
2018-May-20 23:29N 37°57' W 122°30'611.9
2018-May-20 23:01N 37°53' W 122°25'510.2
2018-May-20 22:30N 37°48' W 122°23'1020.4
2018-May-20 22:00N 37°57' W 122°30'1020.6
2018-May-20 21:30N 37°48' W 122°24'612.3
2018-May-20 21:00N 37°53' W 122°26'5 8.6
2018-May-20 20:27N 37°57' W 122°30'1 2.0
2018-May-20 20:00N 37°56' W 122°30'1019.4
2018-May-20 19:30N 37°48' W 122°24'611.5
2018-May-20 19:00N 37°53' W 122°26'5 9.7
2018-May-20 18:30N 37°57' W 122°30'0 0.0
2018-May-20 18:00N 37°57' W 122°30'0 0.0
2018-May-20 17:29N 37°57' W 122°30'0 0.0
2018-May-20 17:00N 37°57' W 122°30'0 0.0
2018-May-20 16:27N 37°57' W 122°30'0 0.0
2018-May-20 16:00N 37°57' W 122°30'612.0
2018-May-20 15:30N 37°53' W 122°25'3 6.0
2018-May-20 15:00N 37°55' W 122°28'2 4.5
2018-May-20 14:30N 37°56' W 122°30'1020.3
2018-May-20 14:00N 37°48' W 122°24'1021.0
2018-May-20 13:30N 37°57' W 122°30'1 0.1
2018-May-20 02:36N 37°56' W 122°30'218.7
2018-May-20 02:30N 37°56' W 122°28'816.5
2018-May-20 02:00N 37°48' W 122°23'510.0
2018-May-20 01:30N 37°51' W 122°28'510.2
2018-May-20 01:00N 37°48' W 122°24'0 0.0
2018-May-20 00:30N 37°48' W 122°24'0 0.0
2018-May-19 23:59N 37°48' W 122°24'0 0.5
2018-May-19 23:31N 37°48' W 122°23'510.5
2018-May-19 23:00N 37°51' W 122°29'1 1.2
2018-May-19 22:30N 37°51' W 122°28'0 0.1
2018-May-19 22:00N 37°51' W 122°28'0 0.1
2018-May-19 21:30N 37°51' W 122°28'510.4
2018-May-19 21:00N 37°56' W 122°29'1 0.0
2018-May-19 04:58N 37°56' W 122°30'1021.8
2018-May-19 04:30N 37°48' W 122°24'917.8
2018-May-19 04:00N 37°56' W 122°29'0 0.0
2018-May-19 03:30N 37°56' W 122°29'918.2
2018-May-19 03:00N 37°48' W 122°24'1020.0
2018-May-19 02:30N 37°56' W 122°30'0 0.9
2018-May-19 02:00N 37°57' W 122°30'1021.3
2018-May-19 01:30N 37°48' W 122°24'4 8.6
2018-May-19 01:01N 37°52' W 122°25'612.8
2018-May-19 00:30N 37°57' W 122°30'1021.1
2018-May-19 00:00N 37°48' W 122°24'3 6.5
2018-May-18 23:30N 37°51' W 122°25'714.7
2018-May-18 23:00N 37°57' W 122°30'1021.0
2018-May-18 22:30N 37°48' W 122°24'918.8
2018-May-18 22:01N 37°56' W 122°29'1 2.6
2018-May-18 21:29N 37°57' W 122°30'0 0.0
2018-May-18 20:58N 37°57' W 122°30'1022.9
2018-May-18 20:31N 37°48' W 122°23'4 7.2
2018-May-18 20:01N 37°51' W 122°25'7 9.9
2018-May-18 19:20N 37°57' W 122°30'929.2
2018-May-18 19:01N 37°49' W 122°23'3 6.4
2018-May-18 18:30N 37°52' W 122°25'6 7.6
2018-May-18 17:41N 37°57' W 122°30'315.9
2018-May-18 17:30N 37°55' W 122°27'815.6
2018-May-18 17:00N 37°48' W 122°24'1019.7
2018-May-18 16:29N 37°56' W 122°30'0 0.5
2018-May-18 15:59N 37°56' W 122°30'1020.6
2018-May-18 15:30N 37°48' W 122°24'1017.9
2018-May-18 14:56N 37°56' W 122°30'3 6.8
2018-May-18 14:30N 37°55' W 122°27'713.1
2018-May-18 14:01N 37°49' W 122°23'9 1.0
2018-May-18 04:55N 37°56' W 122°30'1023.6
2018-May-18 04:30N 37°48' W 122°24'917.7
2018-May-18 04:01N 37°56' W 122°28'1 2.8
2018-May-18 03:30N 37°56' W 122°30'1019.5
2018-May-18 03:00N 37°48' W 122°24'1017.8
2018-May-18 02:25N 37°57' W 122°30'0 0.0
2018-May-18 02:00N 37°57' W 122°30'1021.0
2018-May-18 01:30N 37°48' W 122°24'4 7.4
2018-May-18 01:00N 37°51' W 122°25'712.5
2018-May-18 00:27N 37°57' W 122°30'1023.8
2018-May-18 00:00N 37°48' W 122°24'3 6.6
2018-May-17 23:31N 37°51' W 122°25'713.6
2018-May-17 22:58N 37°57' W 122°30'1022.6
2018-May-17 22:30N 37°48' W 122°24'1019.3
2018-May-17 22:00N 37°56' W 122°30'1 1.1
2018-May-17 21:24N 37°57' W 122°30'0 0.0
2018-May-17 20:57N 37°57' W 122°30'1023.1
2018-May-17 20:30N 37°48' W 122°24'5 9.1
2018-May-17 20:01N 37°52' W 122°25'6 9.6
2018-May-17 19:23N 37°57' W 122°30'1026.6
2018-May-17 19:00N 37°49' W 122°23'4 7.1
2018-May-17 18:30N 37°52' W 122°25'712.6
2018-May-17 17:59N 37°57' W 122°30'2 3.6
2018-May-17 17:30N 37°56' W 122°29'918.0
2018-May-17 17:00N 37°48' W 122°24'1018.7
2018-May-17 16:29N 37°56' W 122°30'1 1.3
2018-May-17 16:01N 37°57' W 122°30'1019.2
2018-May-17 15:28N 37°48' W 122°24'1020.8
2018-May-17 15:00N 37°56' W 122°30'2 3.5
2018-May-17 14:31N 37°55' W 122°28'816.0
2018-May-17 14:01N 37°48' W 122°23'1018.6
2018-May-17 13:28N 37°57' W 122°30'0 0.0
2018-May-17 04:57N 37°56' W 122°30'1021.3
2018-May-17 04:29N 37°48' W 122°24'918.5
2018-May-17 04:00N 37°56' W 122°28'1 2.1
2018-May-17 03:30N 37°56' W 122°30'1019.5
2018-May-17 03:01N 37°48' W 122°24'1019.6
2018-May-17 02:29N 37°57' W 122°30'0 0.6
2018-May-17 02:00N 37°57' W 122°30'1020.5
2018-May-17 01:30N 37°48' W 122°24'4 7.5
2018-May-17 01:01N 37°51' W 122°25'713.6
2018-May-17 00:30N 37°57' W 122°30'1021.3
2018-May-17 00:00N 37°48' W 122°24'1 2.9
2018-May-16 23:31N 37°49' W 122°24'917.2
2018-May-16 22:58N 37°57' W 122°30'1022.1
2018-May-16 22:30N 37°48' W 122°24'918.1
2018-May-16 22:01N 37°56' W 122°28'2 1.7
2018-May-16 20:55N 37°57' W 122°30'1025.0
2018-May-16 20:30N 37°48' W 122°23'4 8.4
2018-May-16 20:00N 37°52' W 122°25'612.2
2018-May-16 19:30N 37°57' W 122°30'1020.4
2018-May-16 19:00N 37°49' W 122°23'611.5
2018-May-16 18:31N 37°54' W 122°27'4 5.5
2018-May-16 17:44N 37°57' W 122°30'415.3
2018-May-16 17:30N 37°55' W 122°27'714.9
2018-May-16 17:00N 37°48' W 122°24'1019.5
2018-May-16 16:30N 37°56' W 122°30'0 0.1
2018-May-16 15:58N 37°56' W 122°30'1021.3
2018-May-16 15:30N 37°48' W 122°24'1019.1
2018-May-16 15:00N 37°56' W 122°30'3 5.3
2018-May-16 14:30N 37°55' W 122°27'613.1
2018-May-16 14:01N 37°49' W 122°23'1019.0
2018-May-16 13:30N 37°57' W 122°30'1 0.1
2018-May-16 04:54N 37°56' W 122°30'1024.3
2018-May-16 04:30N 37°48' W 122°24'918.6
2018-May-16 04:01N 37°56' W 122°29'1 1.6
2018-May-16 03:30N 37°56' W 122°29'1019.0
2018-May-16 03:00N 37°48' W 122°24'1020.3
2018-May-16 02:30N 37°56' W 122°30'0 0.8
2018-May-16 01:59N 37°57' W 122°30'1021.7
2018-May-16 01:30N 37°48' W 122°24'3 5.8
2018-May-16 01:01N 37°51' W 122°25'815.4
2018-May-16 00:31N 37°57' W 122°30'1020.6
2018-May-16 00:00N 37°48' W 122°24'3 6.4
2018-May-15 23:30N 37°51' W 122°25'714.1
2018-May-15 22:59N 37°57' W 122°30'1022.1
2018-May-15 22:30N 37°48' W 122°24'918.1
2018-May-15 22:00N 37°56' W 122°29'2 1.6
2018-May-15 20:56N 37°57' W 122°30'1022.9
2018-May-15 20:31N 37°49' W 122°23'3 5.4
2018-May-15 20:01N 37°51' W 122°25'713.0
2018-May-15 19:28N 37°57' W 122°30'1021.5
2018-May-15 18:59N 37°48' W 122°23'4 8.5
2018-May-15 18:31N 37°52' W 122°25'6 6.6
2018-May-15 17:38N 37°56' W 122°30'321.5
2018-May-15 17:30N 37°55' W 122°27'814.8
2018-May-15 17:00N 37°48' W 122°24'919.2
2018-May-15 16:30N 37°56' W 122°29'0 0.6
2018-May-15 15:59N 37°56' W 122°30'1020.5
2018-May-15 15:30N 37°48' W 122°24'1019.2
2018-May-15 15:00N 37°56' W 122°30'3 6.3
2018-May-15 14:30N 37°54' W 122°27'611.9
2018-May-15 14:01N 37°49' W 122°23'  

Dump ship's entire track history